Time;durP1;ratioP1;P1;durP2;ratioP2;P2;SDS_P1;SDS_P2;PMS_P1;PMS_P2;Temp;Humidity;BMP_temperature;BMP_pressure;BME280_temperature;BME280_humidity;BME280_pressure;Samples;Min_cycle;Max_cycle;Signal;HPM_P1;HPM_P2
2024/04/13 00:02:15;;;;;;;0.80;0.50;;;;;;;11.29;100.00;100484.27;106243;1255;60319;-58
2024/04/13 00:04:41;;;;;;;1.30;0.40;;;;;;;11.31;100.00;100487.05;106283;1254;74752;-59
2024/04/13 00:07:08;;;;;;;0.80;0.40;;;;;;;11.32;100.00;100484.48;106049;1254;65673;-56
2024/04/13 00:09:35;;;;;;;0.50;0.40;;;;;;;11.31;100.00;100483.25;106170;1254;73634;-58
2024/04/13 00:12:02;;;;;;;0.70;0.50;;;;;;;11.31;100.00;100482.21;106009;1254;61192;-56
2024/04/13 00:14:29;;;;;;;1.90;0.40;;;;;;;11.31;100.00;100485.08;106072;1257;60546;-56
2024/04/13 00:16:56;;;;;;;1.50;0.40;;;;;;;11.32;100.00;100483.58;106012;1257;73496;-57
2024/04/13 00:19:23;;;;;;;1.00;0.40;;;;;;;11.32;100.00;100479.78;106205;1254;67330;-56
2024/04/13 00:21:50;;;;;;;1.70;0.40;;;;;;;11.34;100.00;100472.89;106030;1257;74037;-57
2024/04/13 00:24:17;;;;;;;1.40;0.40;;;;;;;11.37;100.00;100476.73;109040;1254;61764;-58
2024/04/13 00:26:44;;;;;;;0.50;0.40;;;;;;;11.40;100.00;100471.42;109177;1253;60726;-56
2024/04/13 00:29:10;;;;;;;0.50;0.40;;;;;;;11.41;100.00;100473.34;109150;1254;73997;-56
2024/04/13 00:31:37;;;;;;;2.60;0.60;;;;;;;11.42;100.00;100474.56;109117;1253;67526;-56
2024/04/13 00:34:04;;;;;;;2.20;0.60;;;;;;;11.43;100.00;100474.34;109114;1253;72570;-56
2024/04/13 00:36:35;;;;;;;0.40;0.40;;;;;;;11.45;100.00;100472.48;109087;1254;59230;-57
2024/04/13 00:39:04;;;;;;;3.30;0.50;;;;;;;11.47;100.00;100475.30;109159;1254;58442;-57
2024/04/13 00:41:31;;;;;;;0.50;0.30;;;;;;;11.49;100.00;100470.34;109091;1253;73561;-56
2024/04/13 00:44:00;;;;;;;0.70;0.40;;;;;;;11.50;100.00;100465.42;109229;1254;66491;-55
2024/04/13 00:46:31;;;;;;;1.80;0.40;;;;;;;11.52;100.00;100468.41;109078;1254;73989;-56
2024/04/13 00:48:59;;;;;;;2.50;0.50;;;;;;;11.54;100.00;100467.09;109032;1253;58923;-56
2024/04/13 00:51:26;;;;;;;0.90;0.40;;;;;;;11.53;100.00;100467.29;108955;1253;59150;-56
2024/04/13 00:53:54;;;;;;;0.70;0.40;;;;;;;11.53;100.00;100465.85;109264;1253;74131;-56
2024/04/13 00:56:21;;;;;;;1.20;0.40;;;;;;;11.54;100.00;100462.77;109070;1253;65978;-56
2024/04/13 00:58:48;;;;;;;1.80;0.30;;;;;;;11.55;100.00;100464.71;108968;1254;72928;-56
2024/04/13 01:01:15;;;;;;;0.60;0.60;;;;;;;11.57;100.00;100462.25;109074;1253;61960;-56
2024/04/13 01:03:43;;;;;;;0.30;0.20;;;;;;;11.60;100.00;100461.42;108254;1256;60283;-57
2024/04/13 01:06:11;;;;;;;1.00;0.40;;;;;;;11.63;100.00;100460.58;106480;1257;75329;-60
2024/04/13 01:08:38;;;;;;;0.90;0.30;;;;;;;11.66;100.00;100457.41;106080;1257;68085;-58
2024/04/13 01:11:04;;;;;;;0.70;0.40;;;;;;;11.70;100.00;100451.14;105978;1254;72256;-57
2024/04/13 01:13:31;;;;;;;0.70;0.40;;;;;;;11.72;100.00;100448.15;106010;1257;60556;-57
2024/04/13 01:15:58;;;;;;;1.10;0.30;;;;;;;11.75;100.00;100448.77;106168;1257;60586;-57
2024/04/13 01:18:26;;;;;;;1.00;0.50;;;;;;;11.77;100.00;100449.59;106178;1254;73859;-57
2024/04/13 01:20:53;;;;;;;1.50;0.30;;;;;;;11.78;100.00;100444.36;106122;1254;67520;-57
2024/04/13 01:23:20;;;;;;;0.90;0.40;;;;;;;11.77;100.00;100446.70;106727;1257;71981;-57
2024/04/13 01:25:46;;;;;;;2.40;0.30;;;;;;;11.77;100.00;100450.32;105945;1256;60540;-57
2024/04/13 01:28:13;;;;;;;0.60;0.30;;;;;;;11.75;100.00;100452.90;106013;1254;61834;-57
2024/04/13 01:30:40;;;;;;;0.50;0.30;;;;;;;11.73;100.00;100452.43;106434;1257;74818;-57
2024/04/13 01:33:07;;;;;;;2.00;0.30;;;;;;;11.72;100.00;100446.02;106324;1259;67044;-57
2024/04/13 01:35:34;;;;;;;1.40;0.10;;;;;;;11.72;100.00;100442.21;106241;1254;72550;-57
2024/04/13 01:38:01;;;;;;;5.20;0.90;;;;;;;11.74;100.00;100446.09;106320;1259;60748;-57
2024/04/13 01:40:30;;;;;;;0.40;0.30;;;;;;;11.78;100.00;100446.89;106134;1253;60492;-57
2024/04/13 01:42:58;;;;;;;0.30;0.30;;;;;;;11.78;100.00;100442.19;106377;1257;74297;-59
2024/04/13 01:45:25;;;;;;;0.50;0.30;;;;;;;11.81;100.00;100442.25;106303;1256;67261;-58
2024/04/13 01:47:52;;;;;;;0.50;0.20;;;;;;;11.83;100.00;100441.60;106031;1258;72643;-57
2024/04/13 01:50:19;;;;;;;3.10;0.20;;;;;;;11.85;100.00;100438.10;106001;1257;61203;-57
2024/04/13 01:52:46;;;;;;;0.60;0.20;;;;;;;11.86;100.00;100435.20;106034;1258;61212;-57
2024/04/13 01:55:13;;;;;;;1.40;0.20;;;;;;;11.86;100.00;100434.66;105998;1269;74822;-58
2024/04/13 01:57:39;;;;;;;0.40;0.30;;;;;;;11.86;100.00;100432.68;106004;1257;67936;-57
2024/04/13 02:00:07;;;;;;;0.40;0.30;;;;;;;11.86;100.00;100427.28;106017;1254;73052;-58
2024/04/13 02:02:35;;;;;;;0.70;0.30;;;;;;;11.86;100.00;100423.86;106132;1257;61224;-57
2024/04/13 02:05:02;;;;;;;2.30;0.30;;;;;;;11.86;100.00;100424.39;106063;1254;61573;-58
2024/04/13 02:07:29;;;;;;;0.30;0.20;;;;;;;11.86;100.00;100420.27;106284;1254;74047;-59
2024/04/13 02:09:56;;;;;;;0.50;0.30;;;;;;;11.87;100.00;100425.28;105943;1260;67378;-58
2024/04/13 02:12:23;;;;;;;0.80;0.30;;;;;;;11.87;100.00;100423.63;105915;1257;72611;-59
2024/04/13 02:14:49;;;;;;;0.60;0.20;;;;;;;11.89;100.00;100421.23;105884;1259;61289;-57
2024/04/13 02:17:16;;;;;;;1.30;0.30;;;;;;;11.91;100.00;100419.16;106003;1266;60936;-58
2024/04/13 02:19:45;;;;;;;1.60;0.20;;;;;;;11.92;100.00;100418.19;106172;1253;75157;-58
2024/04/13 02:22:12;;;;;;;3.30;0.30;;;;;;;11.96;100.00;100422.70;106097;1254;67225;-58
2024/04/13 02:24:39;;;;;;;3.20;0.30;;;;;;;11.98;100.00;100421.91;106036;1254;72653;-59
2024/04/13 02:27:06;;;;;;;1.70;0.30;;;;;;;11.99;100.00;100417.92;106344;1257;61170;-57
2024/04/13 02:29:33;;;;;;;2.70;0.30;;;;;;;12.00;100.00;100420.19;106404;1253;61276;-57
2024/04/13 02:32:00;;;;;;;0.40;0.20;;;;;;;12.01;100.00;100419.97;106036;1259;74918;-58
2024/04/13 02:34:27;;;;;;;0.40;0.30;;;;;;;12.01;100.00;100418.17;106017;1254;67264;-58
2024/04/13 02:36:54;;;;;;;1.20;0.30;;;;;;;12.00;100.00;100414.77;106155;1254;73063;-58
2024/04/13 02:39:21;;;;;;;0.50;0.30;;;;;;;11.99;100.00;100417.52;106111;1253;62161;-57
2024/04/13 02:41:48;;;;;;;0.30;0.20;;;;;;;11.98;100.00;100421.35;106351;1260;61214;-58
2024/04/13 02:44:15;;;;;;;0.70;0.30;;;;;;;11.97;100.00;100422.48;106140;1256;74879;-57
2024/04/13 02:46:42;;;;;;;0.70;0.20;;;;;;;11.96;100.00;100420.52;106104;1254;65598;-59
2024/04/13 02:49:10;;;;;;;0.70;0.30;;;;;;;11.95;100.00;100419.51;106233;1255;73214;-58
2024/04/13 02:51:36;;;;;;;1.80;0.30;;;;;;;11.94;100.00;100417.40;105954;1259;61257;-58
2024/04/13 02:54:04;;;;;;;0.50;0.30;;;;;;;11.92;100.00;100416.58;105989;1259;61322;-59
2024/04/13 02:56:33;;;;;;;0.60;0.30;;;;;;;11.90;100.00;100419.71;106083;1259;72480;-58
2024/04/13 02:59:00;;;;;;;0.80;0.30;;;;;;;11.89;100.00;100415.64;106269;1257;66780;-57
2024/04/13 03:01:27;;;;;;;0.50;0.30;;;;;;;11.88;100.00;100416.58;105998;1253;70440;-58
2024/04/13 03:03:54;;;;;;;0.70;0.30;;;;;;;11.87;100.00;100419.32;106109;1254;62107;-58
2024/04/13 03:06:21;;;;;;;1.20;0.30;;;;;;;11.85;100.00;100416.71;106932;1258;60279;-59
2024/04/13 03:08:50;;;;;;;2.50;0.50;;;;;;;11.83;100.00;100418.97;105968;1259;74701;-59
2024/04/13 03:11:17;;;;;;;2.80;0.30;;;;;;;11.80;100.00;100416.59;106343;1256;67034;-58
2024/04/13 03:13:45;;;;;;;0.90;0.40;;;;;;;11.77;100.00;100416.69;107885;1256;74523;-58
2024/04/13 03:16:12;;;;;;;0.30;0.30;;;;;;;11.74;100.00;100418.77;106135;1258;61292;-59
2024/04/13 03:18:40;;;;;;;0.70;0.30;;;;;;;11.72;100.00;100416.52;106235;1259;61270;-58
2024/04/13 03:21:07;;;;;;;0.40;0.30;;;;;;;11.70;100.00;100416.95;106865;1256;76456;-57
2024/04/13 03:23:36;;;;;;;0.50;0.20;;;;;;;11.66;100.00;100419.29;105984;1257;65969;-58
2024/04/13 03:26:03;;;;;;;1.10;0.30;;;;;;;11.58;100.00;100414.61;106197;1254;73234;-59
2024/04/13 03:28:33;;;;;;;0.40;0.30;;;;;;;11.53;100.00;100412.84;106137;1259;61531;-58
2024/04/13 03:31:01;;;;;;;2.10;0.30;;;;;;;11.50;100.00;100411.34;108353;1258;61355;-59
2024/04/13 03:33:28;;;;;;;1.30;0.30;;;;;;;11.46;100.00;100414.75;106480;1254;74596;-59
2024/04/13 03:36:04;;;;;;;1.90;0.40;;;;;;;11.42;100.00;100421.89;108851;1259;68159;-58
2024/04/13 03:38:32;;;;;;;1.50;0.30;;;;;;;11.38;100.00;100418.29;109033;1254;72810;-59
2024/04/13 03:41:00;;;;;;;2.50;0.30;;;;;;;11.35;100.00;100416.81;109235;1254;59916;-58
2024/04/13 03:43:28;;;;;;;0.90;0.30;;;;;;;11.32;100.00;100416.40;108962;1254;60090;-58
2024/04/13 03:45:55;;;;;;;0.60;0.40;;;;;;;11.28;100.00;100415.48;109147;1254;74780;-59
2024/04/13 03:48:21;;;;;;;0.50;0.40;;;;;;;11.22;100.00;100412.84;108990;1254;65635;-58
2024/04/13 03:50:48;;;;;;;0.50;0.30;;;;;;;11.15;100.00;100414.41;109216;1254;71075;-58
2024/04/13 03:53:15;;;;;;;2.20;0.30;;;;;;;11.08;100.00;100416.66;109147;1253;60198;-58
2024/04/13 03:55:42;;;;;;;1.10;0.30;;;;;;;11.03;100.00;100416.86;109192;1254;59104;-58
2024/04/13 03:58:10;;;;;;;1.30;0.30;;;;;;;11.00;100.00;100416.42;109170;1253;74921;-58
2024/04/13 04:00:36;;;;;;;0.80;0.30;;;;;;;10.97;100.00;100418.33;109145;1254;65720;-58
2024/04/13 04:03:04;;;;;;;0.60;0.30;;;;;;;10.98;100.00;100420.06;109243;1254;73248;-58
2024/04/13 04:05:30;;;;;;;2.30;0.40;;;;;;;10.97;100.00;100421.55;109122;1254;60714;-58
2024/04/13 04:07:58;;;;;;;0.60;0.20;;;;;;;10.93;100.00;100425.32;109105;1254;59162;-58
2024/04/13 04:10:24;;;;;;;2.00;0.30;;;;;;;10.87;100.00;100426.27;109278;1254;75437;-58
2024/04/13 04:12:51;;;;;;;3.10;0.40;;;;;;;10.85;100.00;100427.98;109179;1254;65943;-58
2024/04/13 04:15:18;;;;;;;1.10;0.50;;;;;;;10.86;100.00;100427.77;109130;1253;72354;-57
2024/04/13 04:17:45;;;;;;;0.90;0.50;;;;;;;10.89;100.00;100428.20;109110;1253;60471;-57
2024/04/13 04:20:13;;;;;;;1.90;0.60;;;;;;;10.92;100.00;100431.63;108635;1257;61022;-56
2024/04/13 04:22:40;;;;;;;1.00;0.60;;;;;;;10.98;100.00;100435.73;108929;1254;75083;-59
2024/04/13 04:25:08;;;;;;;5.00;0.60;;;;;;;11.03;100.00;100430.33;105992;1269;66673;-58
2024/04/13 04:27:34;;;;;;;1.70;0.50;;;;;;;11.12;100.00;100429.60;106228;1267;73082;-57
2024/04/13 04:30:02;;;;;;;2.30;0.60;;;;;;;11.31;100.00;100429.20;106005;1259;61961;-58
2024/04/13 04:32:29;;;;;;;1.60;0.50;;;;;;;11.61;100.00;100427.95;106265;1257;61249;-57
2024/04/13 04:34:55;;;;;;;6.80;0.60;;;;;;;11.97;100.00;100422.64;106052;1257;73747;-58
2024/04/13 04:37:22;;;;;;;1.00;0.50;;;;;;;12.26;100.00;100425.67;106104;1254;66520;-58
2024/04/13 04:39:49;;;;;;;2.40;0.50;;;;;;;12.59;100.00;100423.11;106067;1257;71224;-57
2024/04/13 04:42:16;;;;;;;1.60;0.50;;;;;;;12.87;100.00;100427.76;106033;1273;61342;-59
2024/04/13 04:44:43;;;;;;;1.30;0.60;;;;;;;13.04;100.00;100430.54;106048;1255;61675;-58
2024/04/13 04:47:11;;;;;;;2.00;0.40;;;;;;;13.19;100.00;100434.89;107241;1253;74626;-59
2024/04/13 04:49:38;;;;;;;0.50;0.40;;;;;;;13.37;100.00;100436.02;106705;1259;67315;-58
2024/04/13 04:52:06;;;;;;;0.70;0.40;;;;;;;13.48;100.00;100435.83;106067;1259;73331;-56
2024/04/13 04:54:33;;;;;;;0.70;0.50;;;;;;;13.54;100.00;100436.06;106557;1261;62124;-57
2024/04/13 04:57:00;;;;;;;1.90;0.50;;;;;;;13.58;100.00;100432.98;106300;1254;61349;-56
2024/04/13 04:59:27;;;;;;;4.90;0.40;;;;;;;13.61;100.00;100429.53;106027;1257;74823;-55
2024/04/13 05:01:55;;;;;;;5.70;0.50;;;;;;;13.61;100.00;100428.09;106133;1259;66872;-58
2024/04/13 05:04:26;;;;;;;1.00;0.50;;;;;;;13.64;100.00;100426.54;106143;1266;72415;-58
2024/04/13 05:06:53;;;;;;;1.90;0.50;;;;;;;13.67;100.00;100425.69;106805;1256;61763;-57
2024/04/13 05:09:20;;;;;;;2.60;0.60;;;;;;;13.68;100.00;100424.02;106065;1253;62021;-56
2024/04/13 05:11:47;;;;;;;1.60;0.40;;;;;;;13.71;100.00;100422.61;106082;1269;75609;-52
2024/04/13 05:14:19;;;;;;;1.70;0.50;;;;;;;13.77;100.00;100424.45;106215;1254;67837;-58
2024/04/13 05:16:46;;;;;;;2.70;0.50;;;;;;;13.81;100.00;100421.02;106161;1259;73105;-56
2024/04/13 05:19:13;;;;;;;0.80;0.50;;;;;;;13.85;100.00;100421.48;105999;1257;62083;-58
2024/04/13 05:21:40;;;;;;;0.80;0.40;;;;;;;13.92;100.00;100419.48;105995;1259;62146;-57
2024/04/13 05:24:07;;;;;;;1.00;0.40;;;;;;;13.97;100.00;100420.86;105926;1259;74509;-56
2024/04/13 05:26:34;;;;;;;3.40;0.50;;;;;;;14.00;100.00;100416.00;106056;1259;67094;-57
2024/04/13 05:29:03;;;;;;;0.80;0.50;;;;;;;14.03;100.00;100414.27;105985;1254;71511;-56
2024/04/13 05:31:30;;;;;;;0.70;0.50;;;;;;;14.06;100.00;100407.61;106146;1270;61451;-57
2024/04/13 05:33:57;;;;;;;0.50;0.40;;;;;;;14.10;100.00;100405.25;106013;1259;61513;-56
2024/04/13 05:36:23;;;;;;;1.10;0.40;;;;;;;14.14;100.00;100406.27;106000;1254;74774;-55
2024/04/13 05:38:50;;;;;;;1.40;0.50;;;;;;;14.17;100.00;100402.48;106254;1257;67012;-54
2024/04/13 05:41:17;;;;;;;0.70;0.40;;;;;;;14.18;100.00;100404.63;106053;1254;73706;-58
2024/04/13 05:43:44;;;;;;;1.60;0.40;;;;;;;14.19;100.00;100403.34;106056;1259;61732;-55
2024/04/13 05:46:11;;;;;;;1.30;0.50;;;;;;;14.21;100.00;100399.78;106382;1257;61316;-57
2024/04/13 05:48:38;;;;;;;1.50;0.40;;;;;;;14.23;100.00;100397.13;106072;1259;74868;-56
2024/04/13 05:51:05;;;;;;;2.00;0.20;;;;;;;14.28;100.00;100393.44;106068;1256;66043;-58
2024/04/13 05:53:32;;;;;;;1.00;0.50;;;;;;;14.34;100.00;100390.55;106310;1254;72836;-58
2024/04/13 05:56:06;;;;;;;2.30;0.40;;;;;;;14.41;100.00;100392.05;106008;1263;61307;-57
2024/04/13 05:58:33;;;;;;;2.40;0.30;;;;;;;14.48;100.00;100391.85;106201;1259;61206;-58
2024/04/13 06:00:59;;;;;;;0.70;0.40;;;;;;;14.52;100.00;100391.63;106045;1259;73839;-58
2024/04/13 06:03:28;;;;;;;0.80;0.40;;;;;;;14.56;100.00;100388.31;106051;1259;65545;-56
2024/04/13 06:05:55;;;;;;;1.60;0.30;;;;;;;14.62;100.00;100389.10;106287;1257;71396;-57
2024/04/13 06:08:22;;;;;;;1.00;0.30;;;;;;;14.66;100.00;100387.96;106167;1254;61529;-58
2024/04/13 06:10:49;;;;;;;1.10;0.30;;;;;;;14.69;100.00;100391.23;106145;1260;61292;-56
2024/04/13 06:13:17;;;;;;;0.60;0.40;;;;;;;14.71;100.00;100392.39;106111;1254;75028;-56
2024/04/13 06:15:44;;;;;;;1.80;0.40;;;;;;;14.68;100.00;100390.23;106051;1258;67180;-59
2024/04/13 06:18:12;;;;;;;0.40;0.30;;;;;;;14.69;100.00;100393.59;106082;1259;73537;-57
2024/04/13 06:20:39;;;;;;;1.10;0.30;;;;;;;14.73;100.00;100390.29;106216;1258;61470;-57
2024/04/13 06:23:06;;;;;;;1.40;0.30;;;;;;;14.76;100.00;100389.23;106098;1257;61349;-58
2024/04/13 06:25:32;;;;;;;0.30;0.20;;;;;;;14.76;100.00;100389.18;106073;1260;74935;-58
2024/04/13 06:28:00;;;;;;;1.30;0.30;;;;;;;14.78;100.00;100388.02;106169;1258;66914;-56
2024/04/13 06:30:26;;;;;;;1.50;0.30;;;;;;;14.82;100.00;100388.71;106030;1254;73127;-58
2024/04/13 06:32:53;;;;;;;0.50;0.30;;;;;;;14.84;100.00;100391.49;106074;1254;61261;-58
2024/04/13 06:35:20;;;;;;;2.00;0.30;;;;;;;14.83;100.00;100386.63;106099;1259;61828;-57
2024/04/13 06:37:47;;;;;;;0.80;0.30;;;;;;;14.86;100.00;100383.05;106074;1258;75165;-57
2024/04/13 06:40:14;;;;;;;2.30;0.30;;;;;;;14.91;100.00;100380.39;106010;1260;66193;-56
2024/04/13 06:42:41;;;;;;;0.40;0.30;;;;;;;14.99;100.00;100375.96;106021;1254;73371;-56
2024/04/13 06:45:08;;;;;;;1.70;0.30;;;;;;;15.08;100.00;100374.89;106073;1269;61455;-57
2024/04/13 06:47:35;;;;;;;0.30;0.30;;;;;;;15.17;100.00;100376.43;107873;1258;61251;-56
2024/04/13 06:50:03;;;;;;;1.60;0.40;;;;;;;15.24;100.00;100376.37;109176;1254;74610;-58
2024/04/13 06:52:29;;;;;;;0.40;0.30;;;;;;;15.32;100.00;100369.59;109230;1254;65756;-57
2024/04/13 06:54:56;;;;;;;1.00;0.30;;;;;;;15.39;100.00;100369.36;109215;1254;73749;-59
2024/04/13 06:57:24;;;;;;;0.80;0.20;;;;;;;15.46;100.00;100368.41;109277;1254;59074;-57
2024/04/13 06:59:51;;;;;;;0.70;0.30;;;;;;;15.51;100.00;100366.11;109185;1254;60207;-57
2024/04/13 07:02:19;;;;;;;0.90;0.40;;;;;;;15.52;100.00;100368.91;109228;1254;73451;-56
2024/04/13 07:04:46;;;;;;;0.50;0.20;;;;;;;15.56;100.00;100367.30;109280;1253;65687;-57
2024/04/13 07:07:14;;;;;;;1.00;0.30;;;;;;;15.60;100.00;100369.38;109237;1254;72656;-58
2024/04/13 07:09:42;;;;;;;0.30;0.30;;;;;;;15.68;100.00;100368.95;109236;1254;59161;-57
2024/04/13 07:12:08;;;;;;;0.60;0.30;;;;;;;15.76;100.00;100361.58;109143;1254;59240;-58
2024/04/13 07:14:36;;;;;;;0.60;0.20;;;;;;;15.84;100.00;100358.17;109199;1254;74218;-58
2024/04/13 07:17:04;;;;;;;0.50;0.30;;;;;;;15.94;100.00;100364.08;109113;1254;66897;-57
2024/04/13 07:19:31;;;;;;;0.30;0.20;;;;;;;16.04;100.00;100371.08;109087;1254;72610;-55
2024/04/13 07:21:58;;;;;;;0.70;0.30;;;;;;;16.16;100.00;100371.61;109163;1254;59714;-57
2024/04/13 07:24:28;;;;;;;0.80;0.30;;;;;;;16.23;100.00;100367.35;108994;1254;59146;-58
2024/04/13 07:26:55;;;;;;;1.70;0.30;;;;;;;16.23;100.00;100363.22;109098;1254;73434;-56
2024/04/13 07:29:22;;;;;;;1.10;0.30;;;;;;;16.21;100.00;100358.63;109148;1254;67699;-58
2024/04/13 07:31:49;;;;;;;0.50;0.30;;;;;;;16.19;100.00;100352.57;109102;1254;72322;-58
2024/04/13 07:34:16;;;;;;;0.40;0.20;;;;;;;16.16;100.00;100350.92;108691;1254;61436;-58
2024/04/13 07:36:42;;;;;;;0.60;0.30;;;;;;;16.13;100.00;100350.42;106110;1253;61336;-56
2024/04/13 07:39:11;;;;;;;2.10;0.20;;;;;;;16.08;100.00;100345.27;106188;1258;75129;-58
2024/04/13 07:41:38;;;;;;;0.60;0.20;;;;;;;16.09;100.00;100346.33;106389;1259;65679;-57
2024/04/13 07:44:05;;;;;;;1.40;0.30;;;;;;;16.12;100.00;100345.09;106864;1254;74009;-56
2024/04/13 07:46:33;;;;;;;0.40;0.20;;;;;;;16.16;100.00;100344.06;106403;1255;61376;-56
2024/04/13 07:49:00;;;;;;;0.80;0.30;;;;;;;16.19;100.00;100345.36;106676;1258;62105;-56
2024/04/13 07:51:27;;;;;;;0.80;0.30;;;;;;;16.19;100.00;100341.50;106454;1259;74730;-55
2024/04/13 07:53:54;;;;;;;1.30;0.30;;;;;;;16.21;100.00;100339.80;106103;1258;67889;-55
2024/04/13 07:56:21;;;;;;;3.80;0.10;;;;;;;16.24;100.00;100340.54;106278;1254;72837;-57
2024/04/13 07:58:48;;;;;;;1.30;0.20;;;;;;;16.23;100.00;100338.73;106082;1259;61204;-57
2024/04/13 08:01:15;;;;;;;0.40;0.20;;;;;;;16.24;100.00;100334.36;106255;1254;61983;-56
2024/04/13 08:03:41;;;;;;;1.00;0.20;;;;;;;16.24;100.00;100337.58;106051;1259;75785;-57
2024/04/13 08:06:09;;;;;;;3.20;0.20;;;;;;;16.25;100.00;100329.01;106543;1256;67662;-56
2024/04/13 08:08:36;;;;;;;0.80;0.30;;;;;;;16.28;100.00;100332.61;106205;1257;72748;-55
2024/04/13 08:11:06;;;;;;;1.90;0.20;;;;;;;16.32;100.00;100331.90;106085;1255;61285;-57
2024/04/13 08:13:34;;;;;;;2.20;0.30;;;;;;;16.36;100.00;100332.11;106481;1259;60645;-59
2024/04/13 08:16:06;;;;;;;0.80;0.30;;;;;;;16.44;100.00;100329.27;106065;1255;75310;-56
2024/04/13 08:18:33;;;;;;;0.70;0.30;;;;;;;16.51;100.00;100326.31;106096;1260;65958;-56
2024/04/13 08:21:01;;;;;;;3.40;0.30;;;;;;;16.52;100.00;100322.27;106461;1259;72366;-56
2024/04/13 08:23:28;;;;;;;0.40;0.30;;;;;;;16.54;100.00;100318.86;106678;1259;61250;-55
2024/04/13 08:26:03;;;;;;;0.50;0.30;;;;;;;16.60;100.00;100313.20;106168;1254;61446;-56
2024/04/13 08:28:29;;;;;;;;;;;;;;;16.66;100.00;100311.20;106399;1256;74540;-59
2024/04/13 08:30:56;;;;;;;0.40;0.20;;;;;;;16.72;100.00;100310.82;106358;1259;67058;-57
2024/04/13 08:33:23;;;;;;;1.60;0.20;;;;;;;16.76;100.00;100312.73;105975;1257;75584;-57
2024/04/13 08:36:03;;;;;;;0.40;0.30;;;;;;;16.79;100.00;100314.00;106010;1254;61282;-55
2024/04/13 08:38:34;;;;;;;0.60;0.20;;;;;;;16.82;100.00;100301.88;106024;1254;61308;-56
2024/04/13 08:41:07;;;;;;;0.40;0.20;;;;;;;16.85;100.00;100298.77;106049;1259;75461;-56
2024/04/13 08:43:34;;;;;;;0.50;0.30;;;;;;;16.87;100.00;100292.80;106152;1254;65670;-58
2024/04/13 08:46:07;;;;;;;2.00;0.30;;;;;;;16.90;100.00;100293.16;105858;1255;72379;-55
2024/04/13 08:48:38;;;;;;;1.50;0.30;;;;;;;16.94;100.00;100293.42;106170;1259;61352;-53
2024/04/13 08:51:09;;;;;;;1.10;0.30;;;;;;;17.00;100.00;100288.14;106210;1260;61539;-54
2024/04/13 08:53:36;;;;;;;2.70;0.30;;;;;;;17.06;100.00;100285.41;105783;1263;74519;-57
2024/04/13 08:56:03;;;;;;;0.60;0.20;;;;;;;17.07;100.00;100281.86;105870;1262;67207;-58
2024/04/13 08:58:34;;;;;;;0.30;0.20;;;;;;;17.09;100.00;100277.23;106173;1267;72790;-56
2024/04/13 09:01:01;;;;;;;0.30;0.20;;;;;;;17.10;100.00;100276.05;106372;1269;61365;-55
2024/04/13 09:03:28;;;;;;;0.20;0.20;;;;;;;17.18;100.00;100280.44;105958;1262;62134;-56
2024/04/13 09:05:56;;;;;;;0.70;0.30;;;;;;;17.26;100.00;100276.21;106096;1267;75421;-56
2024/04/13 09:08:24;;;;;;;0.50;0.30;;;;;;;17.32;100.00;100273.48;106872;1254;66448;-54
2024/04/13 09:10:51;;;;;;;0.50;0.30;;;;;;;17.30;100.00;100273.39;108326;1259;71992;-57
2024/04/13 09:13:18;;;;;;;0.70;0.30;;;;;;;17.28;100.00;100269.35;106140;1267;61234;-56
2024/04/13 09:15:45;;;;;;;1.00;0.30;;;;;;;17.32;100.00;100264.05;106068;1257;61629;-57
2024/04/13 09:18:12;;;;;;;0.60;0.30;;;;;;;17.34;100.00;100265.92;105953;1254;73545;-57
2024/04/13 09:20:39;;;;;;;0.30;0.20;;;;;;;17.35;100.00;100261.80;106117;1260;67763;-59
2024/04/13 09:23:06;;;;;;;2.60;0.30;;;;;;;17.39;100.00;100264.27;106076;1254;72706;-57
2024/04/13 09:25:33;;;;;;;0.40;0.30;;;;;;;17.43;100.00;100263.27;106118;1260;61259;-55
2024/04/13 09:28:04;;;;;;;3.90;0.30;;;;;;;17.45;100.00;100256.05;106210;1257;61279;-55
2024/04/13 09:30:31;;;;;;;2.20;0.30;;;;;;;17.52;100.00;100253.45;106014;1259;73703;-58
2024/04/13 09:33:06;;;;;;;0.30;0.30;;;;;;;17.60;100.00;100243.21;107369;1254;67164;-56
2024/04/13 09:35:33;;;;;;;1.50;0.40;;;;;;;17.68;100.00;100242.52;106058;1258;73326;-58
2024/04/13 09:38:01;;;;;;;11.50;0.40;;;;;;;17.71;100.00;100232.31;106302;1255;62232;-56
2024/04/13 09:40:30;;;;;;;0.60;0.40;;;;;;;17.71;100.00;100228.86;106231;1256;62121;-56
2024/04/13 09:43:00;;;;;;;0.50;0.30;;;;;;;17.69;100.00;100219.73;106215;1254;75401;-57
2024/04/13 09:45:27;;;;;;;3.10;0.30;;;;;;;17.69;100.00;100213.09;106801;1259;67956;-56
2024/04/13 09:47:55;;;;;;;1.70;0.30;;;;;;;17.71;100.00;100206.91;105955;1259;70959;-55
2024/04/13 09:50:26;;;;;;;1.20;0.40;;;;;;;17.73;100.00;100201.48;106122;1258;61458;-55
2024/04/13 09:52:52;;;;;;;1.70;0.30;;;;;;;17.75;100.00;100194.08;106747;1259;60347;-57
2024/04/13 09:55:21;;;;;;;0.60;0.30;;;;;;;17.72;100.00;100187.05;105913;1255;262329;-57
2024/04/13 09:58:44;;;;;;;2.40;0.30;;;;;;;17.67;100.00;100185.80;103900;1286;600376;-57
2024/04/13 10:01:11;;;;;;;0.50;0.30;;;;;;;17.67;100.00;100193.02;105340;1270;60353;-56
2024/04/13 10:03:38;;;;;;;0.30;0.20;;;;;;;17.69;100.00;100188.55;105188;1272;59724;-55
2024/04/13 10:06:09;;;;;;;0.90;0.30;;;;;;;17.65;100.00;100189.89;108454;1267;73720;-59
2024/04/13 10:08:35;;;;;;;0.50;0.20;;;;;;;17.63;100.00;100184.41;108336;1266;66703;-55
2024/04/13 10:11:04;;;;;;;1.00;0.30;;;;;;;17.59;100.00;100180.48;108317;1266;71318;-58
2024/04/13 10:13:33;;;;;;;0.60;0.30;;;;;;;17.55;100.00;100178.06;108433;1262;260359;-56
2024/04/13 10:16:00;;;;;;;0.40;0.40;;;;;;;17.52;100.00;100178.64;108462;1264;60948;-57
2024/04/13 10:18:27;;;;;;;0.50;0.30;;;;;;;17.55;100.00;100175.73;108460;1264;74041;-54
2024/04/13 10:21:03;;;;;;;0.80;0.50;;;;;;;17.61;100.00;100172.92;108426;1264;66627;-57
2024/04/13 10:23:40;;;;;;;0.70;0.30;;;;;;;17.71;100.00;100170.83;108539;1263;70565;-55
2024/04/13 10:26:07;;;;;;;2.20;0.30;;;;;;;17.76;100.00;100168.46;108523;1263;60113;-56
2024/04/13 10:28:34;;;;;;;0.40;0.30;;;;;;;17.78;100.00;100164.52;108546;1263;60606;-57
2024/04/13 10:31:02;;;;;;;0.70;0.30;;;;;;;17.76;100.00;100161.00;108646;1264;72935;-56
2024/04/13 10:33:30;;;;;;;0.90;0.40;;;;;;;17.72;100.00;100163.29;108445;1263;67706;-57
2024/04/13 10:35:58;;;;;;;1.60;0.30;;;;;;;17.68;100.00;100157.61;108526;1263;73425;-57
2024/04/13 10:38:25;;;;;;;2.80;0.40;;;;;;;17.66;100.00;100146.48;108579;1263;60099;-58
2024/04/13 10:40:52;;;;;;;1.00;0.20;;;;;;;17.69;100.00;100143.52;108526;1266;60322;-58
2024/04/13 10:43:20;;;;;;;4.90;0.40;;;;;;;17.75;100.00;100146.55;108507;1263;73560;-54
2024/04/13 10:45:53;;;;;;;0.70;0.20;;;;;;;17.77;100.00;100141.52;107928;1266;67276;-56
2024/04/13 10:48:21;;;;;;;1.80;0.40;;;;;;;17.80;100.00;100133.84;105918;1268;73450;-55
2024/04/13 10:50:48;;;;;;;0.70;0.30;;;;;;;17.88;100.00;100130.77;107562;1266;59275;-57
2024/04/13 10:53:15;;;;;;;3.10;0.30;;;;;;;17.96;100.00;100130.49;105692;1267;61439;-55
2024/04/13 10:55:42;;;;;;;0.40;0.30;;;;;;;18.00;100.00;100128.94;105434;1273;74931;-57
2024/04/13 10:58:09;;;;;;;0.70;0.30;;;;;;;18.02;100.00;100125.70;105514;1269;67086;-59
2024/04/13 11:00:36;;;;;;;0.80;0.20;;;;;;;18.02;100.00;100122.06;105998;1259;73136;-57
2024/04/13 11:03:04;;;;;;;0.90;0.30;;;;;;;18.07;100.00;100117.30;106114;1267;61588;-56
2024/04/13 11:05:31;;;;;;;1.40;0.30;;;;;;;18.18;100.00;100117.08;105984;1261;60552;-57
2024/04/13 11:07:59;;;;;;;1.40;0.30;;;;;;;18.23;100.00;100113.05;105894;1261;72980;-57
2024/04/13 11:10:27;;;;;;;1.10;0.40;;;;;;;18.24;100.00;100109.52;106525;1260;67832;-56
2024/04/13 11:12:53;;;;;;;3.80;0.40;;;;;;;18.25;100.00;100111.48;105883;1263;73701;-57